Time;durP1;ratioP1;P1;durP2;ratioP2;P2;SDS_P1;SDS_P2;PMS_P1;PMS_P2;Temp;Humidity;BMP_temperature;BMP_pressure;BME280_temperature;BME280_humidity;BME280_pressure;Samples;Min_cycle;Max_cycle;Signal;HPM_P1;HPM_P2
2021/05/18 00:00:30;;;;;;;3.17;0.88;;;22.10;56.90;;;;;;5111702;27;20027;-40
2021/05/18 00:02:56;;;;;;;1.00;0.90;;;22.10;57.00;;;;;;5107328;27;20036;-40
2021/05/18 00:05:22;;;;;;;2.35;0.90;;;22.10;56.90;;;;;;5112055;27;20442;-41
2021/05/18 00:07:55;;;;;;;1.20;0.60;;;22.10;56.80;;;;;;5113372;27;20027;-40
2021/05/18 00:13:06;;;;;;;1.10;1.00;;;22.00;56.80;;;;;;5110731;27;20101;-41
2021/05/18 00:15:31;;;;;;;1.20;0.80;;;22.00;56.80;;;;;;5111870;27;20043;-42
2021/05/18 00:17:57;;;;;;;1.20;0.82;;;22.00;57.00;;;;;;5109083;27;20757;-41
2021/05/18 00:20:23;;;;;;;1.90;0.80;;;22.00;57.00;;;;;;5093490;28;20103;-42
2021/05/18 00:22:48;;;;;;;0.90;0.70;;;22.00;56.90;;;;;;5112137;27;20031;-44
2021/05/18 00:25:14;;;;;;;1.08;0.80;;;22.00;56.90;;;;;;5111570;27;20043;-40
2021/05/18 00:27:40;;;;;;;1.75;1.08;;;21.90;57.10;;;;;;5111190;27;20035;-41
2021/05/18 00:30:06;;;;;;;1.20;0.80;;;22.00;57.00;;;;;;5109152;27;20065;-39
2021/05/18 00:32:32;;;;;;;1.20;0.63;;;22.00;56.90;;;;;;5108233;27;20027;-42
2021/05/18 00:34:57;;;;;;;2.83;0.68;;;22.00;56.80;;;;;;5113318;27;20084;-41
2021/05/18 00:37:24;;;;;;;0.73;0.73;;;22.10;56.60;;;;;;5112372;27;20176;-39
2021/05/18 00:39:50;;;;;;;2.13;1.05;;;22.00;56.70;;;;;;5111875;27;20031;-40
2021/05/18 00:42:19;;;;;;;0.65;0.50;;;22.00;56.60;;;;;;5110830;27;20023;-36
2021/05/18 00:44:45;;;;;;;0.95;0.68;;;22.00;56.60;;;;;;5107999;28;20016;-41
2021/05/18 00:47:11;;;;;;;1.27;0.90;;;22.00;56.80;;;;;;5113538;27;20445;-31
2021/05/18 00:49:36;;;;;;;1.33;0.98;;;22.00;56.80;;;;;;5112194;27;20027;-40
2021/05/18 00:52:05;;;;;;;1.85;0.98;;;22.00;56.70;;;;;;5109804;27;20059;-40
2021/05/18 00:54:37;;;;;;;1.92;0.90;;;22.00;56.80;;;;;;5109990;27;20050;-38
2021/05/18 00:59:47;;;;;;;1.23;0.90;;;21.90;57.00;;;;;;5098912;28;20069;-37
2021/05/18 01:02:13;;;;;;;0.77;0.65;;;21.90;57.00;;;;;;5094800;28;20020;-40
2021/05/18 01:04:42;;;;;;;2.60;1.20;;;21.80;57.00;;;;;;5111497;28;20030;-38
2021/05/18 01:07:08;;;;;;;0.73;0.70;;;21.80;57.00;;;;;;5110247;27;20027;-42
2021/05/18 01:09:33;;;;;;;0.98;0.77;;;21.80;57.00;;;;;;5109581;28;20192;-42
2021/05/18 01:11:59;;;;;;;1.00;0.80;;;21.80;57.00;;;;;;5107507;28;20574;-40
2021/05/18 01:14:24;;;;;;;0.65;0.65;;;21.80;57.20;;;;;;5109546;27;20048;-42
2021/05/18 01:16:51;;;;;;;0.60;0.60;;;21.80;57.10;;;;;;5112260;28;20065;-38
2021/05/18 01:19:18;;;;;;;0.93;0.73;;;21.80;57.30;;;;;;5109161;28;20029;-40
2021/05/18 01:21:44;;;;;;;1.00;0.70;;;21.80;57.20;;;;;;5113236;28;20039;-40
2021/05/18 01:24:10;;;;;;;1.20;0.80;;;21.80;58.10;;;;;;5108894;28;20027;-36
2021/05/18 01:26:36;;;;;;;1.17;1.05;;;21.70;57.50;;;;;;5107673;28;20020;-45
2021/05/18 01:29:02;;;;;;;0.88;0.70;;;21.70;57.60;;;;;;5120102;28;20123;-41
2021/05/18 01:31:28;;;;;;;0.95;0.70;;;21.70;57.40;;;;;;5108726;28;20016;-36
2021/05/18 01:33:54;;;;;;;1.58;0.80;;;21.70;57.60;;;;;;5111337;28;20040;-40
2021/05/18 01:36:21;;;;;;;1.80;0.70;;;21.70;57.60;;;;;;5092067;28;20027;-42
2021/05/18 01:43:58;;;;;;;1.25;0.70;;;21.60;57.70;;;;;;5116908;27;20111;-40
2021/05/18 01:46:25;;;;;;;1.13;0.80;;;21.60;57.80;;;;;;5114384;27;20035;-42
2021/05/18 01:48:58;;;;;;;1.95;0.73;;;21.60;57.50;;;;;;5098116;28;20028;-42
2021/05/18 01:51:28;;;;;;;0.77;0.77;;;21.70;57.50;;;;;;5113200;27;20106;-36
2021/05/18 01:53:55;;;;;;;0.75;0.65;;;21.60;57.60;;;;;;5111113;27;20042;-42
2021/05/18 01:56:38;;;;;;;1.58;1.15;;;21.60;57.70;;;;;;5095896;28;20073;-41
2021/05/18 01:59:05;;;;;;;0.73;0.70;;;21.60;57.80;;;;;;5117714;27;20032;-36
2021/05/18 02:01:31;;;;;;;1.17;1.00;;;21.60;57.70;;;;;;5112602;27;20024;-36
2021/05/18 02:03:57;;;;;;;0.95;0.73;;;21.60;57.70;;;;;;5113646;27;20028;-43
2021/05/18 02:06:23;;;;;;;0.90;0.70;;;21.60;57.70;;;;;;5113720;27;20485;-42
2021/05/18 02:08:48;;;;;;;1.33;0.85;;;21.50;57.80;;;;;;5108650;27;20082;-40
2021/05/18 02:11:14;;;;;;;0.70;0.60;;;21.60;57.60;;;;;;5115945;27;20032;-42
2021/05/18 02:13:45;;;;;;;1.40;0.68;;;21.60;57.50;;;;;;5102314;27;20051;-40
2021/05/18 02:16:15;;;;;;;1.65;0.73;;;21.70;57.40;;;;;;5092370;28;20028;-42
2021/05/18 02:18:55;;;;;;;1.77;0.85;;;21.60;57.60;;;;;;5096139;28;20453;-36
2021/05/18 02:26:37;;;;;;;1.67;1.00;;;21.50;57.80;;;;;;5087990;28;20031;-40
2021/05/18 02:29:03;;;;;;;1.02;0.80;;;21.50;57.80;;;;;;5097089;28;20028;-42
2021/05/18 02:31:28;;;;;;;1.17;0.90;;;21.60;57.50;;;;;;5091920;28;20029;-41
2021/05/18 02:33:54;;;;;;;1.65;1.10;;;21.50;57.40;;;;;;5092745;28;20036;-39
2021/05/18 02:36:22;;;;;;;0.98;0.63;;;21.50;57.70;;;;;;5094429;28;20438;-41
2021/05/18 02:38:48;;;;;;;1.20;0.80;;;21.50;57.60;;;;;;5088698;28;20086;-40
2021/05/18 02:41:14;;;;;;;1.13;0.93;;;21.50;57.90;;;;;;5095428;28;20032;-40
2021/05/18 02:49:08;;;;;;;0.98;0.85;;;21.50;57.70;;;;;;5029804;28;20037;-41
2021/05/18 02:51:33;;;;;;;0.93;0.80;;;21.60;57.50;;;;;;5028239;28;20107;-41
2021/05/18 02:53:59;;;;;;;0.80;0.68;;;21.60;57.30;;;;;;5027709;28;20467;-40
2021/05/18 02:58:59;;;;;;;1.30;0.70;;;21.60;57.30;;;;;;5031641;28;20033;-42
2021/05/18 03:01:24;;;;;;;;;;;21.50;57.60;;;;;;5030238;28;20033;-42
2021/05/18 03:03:50;;;;;;;1.75;0.77;;;21.50;57.60;;;;;;5027817;28;20063;-37
2021/05/18 03:06:15;;;;;;;1.02;0.70;;;21.50;57.40;;;;;;5018734;28;20482;-42
2021/05/18 03:08:41;;;;;;;0.70;0.70;;;21.50;57.50;;;;;;5024713;28;20029;-40
2021/05/18 03:11:09;;;;;;;0.63;0.55;;;21.50;57.60;;;;;;5017161;28;20033;-40
2021/05/18 03:13:35;;;;;;;1.10;1.00;;;21.40;57.60;;;;;;5012872;28;20431;-41
2021/05/18 03:16:01;;;;;;;1.20;1.10;;;21.40;57.70;;;;;;5027878;28;20757;-35
2021/05/18 03:18:27;;;;;;;0.95;0.75;;;21.40;57.50;;;;;;5029124;28;20525;-42
2021/05/18 03:20:52;;;;;;;1.67;1.00;;;21.40;57.60;;;;;;5028497;28;20025;-42
2021/05/18 03:23:18;;;;;;;1.02;0.82;;;21.40;57.50;;;;;;5042961;28;20577;-42
2021/05/18 03:25:43;;;;;;;0.70;0.70;;;21.50;57.50;;;;;;5068278;28;20405;-43
2021/05/18 03:28:09;;;;;;;1.25;0.80;;;21.50;57.90;;;;;;5094479;28;20103;-45
2021/05/18 03:35:50;;;;;;;0.90;0.73;;;21.40;57.50;;;;;;5089835;28;20496;-42
2021/05/18 03:38:22;;;;;;;0.95;0.77;;;21.40;57.60;;;;;;5093459;28;20498;-44
2021/05/18 03:40:58;;;;;;;0.63;0.63;;;21.40;57.50;;;;;;5090958;28;20032;-42
2021/05/18 03:52:18;;;;;;;2.08;0.68;;;21.40;57.20;;;;;;5082823;28;20153;-43
2021/05/18 03:54:55;;;;;;;0.85;0.70;;;21.40;57.30;;;;;;5093644;28;20051;-43
2021/05/18 04:02:50;;;;;;;0.85;0.73;;;21.60;56.70;;;;;;5088588;28;20101;-43
2021/05/18 04:18:24;;;;;;;;;;;21.50;56.60;;;;;;5109154;27;20065;-43
2021/05/18 04:21:03;;;;;;;0.90;0.75;;;21.50;56.60;;;;;;5108944;27;19939;-43
2021/05/18 04:58:59;;;;;;;4.28;3.15;;;21.80;59.00;;;;;;5048016;28;20029;-40
2021/05/18 05:00:55;;;;;;;3.08;2.35;;;22.00;59.50;;;;;;5046214;28;20059;-42
2021/05/18 05:16:43;;;;;;;4.80;2.60;;;22.20;60.50;;;;;;5107999;28;20493;-43
2021/05/18 05:19:08;;;;;;;4.88;2.55;;;22.30;60.30;;;;;;5104850;28;20088;-32
2021/05/18 05:21:34;;;;;;;4.97;2.10;;;22.30;60.10;;;;;;5104177;28;20074;-41
2021/05/18 05:24:00;;;;;;;4.65;2.30;;;22.20;59.80;;;;;;5106448;28;20020;-41
2021/05/18 05:26:26;;;;;;;4.80;1.90;;;22.20;59.70;;;;;;5123572;28;20035;-37
2021/05/18 05:28:52;;;;;;;5.95;2.22;;;22.20;59.60;;;;;;4747257;28;9999907;-34
2021/05/18 05:31:17;;;;;;;7.95;2.30;;;22.10;59.70;;;;;;5098267;28;20027;-28
2021/05/18 05:33:43;;;;;;;2.88;2.00;;;22.10;59.20;;;;;;5101583;28;20070;-39
2021/05/18 05:36:09;;;;;;;3.58;1.83;;;22.10;58.80;;;;;;5097927;28;20026;-38
2021/05/18 05:38:34;;;;;;;7.55;2.60;;;22.10;58.70;;;;;;5098074;28;20058;-42
2021/05/18 05:41:00;;;;;;;4.07;1.95;;;22.10;58.60;;;;;;5100025;28;20027;-37
2021/05/18 05:43:26;;;;;;;2.63;1.90;;;22.10;58.40;;;;;;5101627;28;20454;-34
2021/05/18 05:45:51;;;;;;;5.28;2.35;;;22.10;58.30;;;;;;5105199;28;20438;-38
2021/05/18 05:48:20;;;;;;;5.70;1.98;;;22.10;58.70;;;;;;5107845;28;20026;-37
2021/05/18 05:50:46;;;;;;;4.28;1.70;;;21.90;58.80;;;;;;5104997;28;20034;-43
2021/05/18 05:53:12;;;;;;;4.20;1.90;;;21.80;59.00;;;;;;5094545;28;20019;-39
2021/05/18 05:55:38;;;;;;;3.38;1.95;;;21.70;59.40;;;;;;5111366;28;20032;-41
2021/05/18 05:58:03;;;;;;;2.75;1.70;;;21.60;60.40;;;;;;5109075;28;20508;-43
2021/05/18 06:00:29;;;;;;;5.35;2.05;;;21.50;59.40;;;;;;5109960;28;20021;-42
2021/05/18 06:02:54;;;;;;;2.60;1.25;;;21.60;59.60;;;;;;5107233;28;20101;-39
2021/05/18 06:05:20;;;;;;;4.63;1.65;;;21.60;59.70;;;;;;5087764;28;20019;-34
2021/05/18 06:07:46;;;;;;;3.75;1.90;;;21.70;58.80;;;;;;5109672;28;20031;-41
2021/05/18 06:10:16;;;;;;;3.30;1.67;;;21.80;58.30;;;;;;5106537;28;20625;-39
2021/05/18 06:47:37;;;;;;;2.43;1.20;;;22.30;56.50;;;;;;5125833;27;19951;-38
2021/05/18 06:52:39;;;;;;;3.38;1.50;;;22.10;57.40;;;;;;5115035;27;20031;-41
2021/05/18 06:55:08;;;;;;;3.35;1.65;;;22.10;57.30;;;;;;5111594;27;20065;-28
2021/05/18 06:57:36;;;;;;;3.60;1.52;;;22.00;56.90;;;;;;5110153;27;20023;-44
2021/05/18 07:00:11;;;;;;;1.90;1.40;;;22.00;57.40;;;;;;5124455;27;20040;-43
2021/05/18 07:02:42;;;;;;;2.63;1.20;;;22.00;57.40;;;;;;5109536;27;20020;-44
2021/05/18 07:07:50;;;;;;;3.97;1.60;;;22.10;56.90;;;;;;5115654;27;20032;-42
2021/05/18 07:10:16;;;;;;;2.08;1.33;;;22.10;56.70;;;;;;5113240;27;20035;-42
2021/05/18 07:12:41;;;;;;;1.67;1.00;;;22.20;56.50;;;;;;5111997;27;20034;-43
2021/05/18 07:15:07;;;;;;;2.47;1.30;;;22.20;56.40;;;;;;5091220;28;20088;-43
2021/05/18 07:17:33;;;;;;;1.73;1.20;;;22.30;56.40;;;;;;5112623;27;20028;-43
2021/05/18 07:19:58;;;;;;;1.40;1.00;;;22.30;56.40;;;;;;5113812;27;20390;-42
2021/05/18 07:22:24;;;;;;;1.88;0.90;;;22.40;56.30;;;;;;5112770;27;20032;-43
2021/05/18 07:24:50;;;;;;;2.33;1.02;;;22.30;56.40;;;;;;5111317;27;20424;-45
2021/05/18 07:27:15;;;;;;;1.58;1.25;;;22.30;56.30;;;;;;5107350;27;20531;-45
2021/05/18 07:29:41;;;;;;;3.47;1.33;;;22.20;57.30;;;;;;5092919;28;20023;-44
2021/05/18 07:32:06;;;;;;;3.90;1.13;;;22.20;57.40;;;;;;5115469;27;20476;-44
2021/05/18 07:34:32;;;;;;;1.73;1.08;;;22.20;56.80;;;;;;5103532;27;20036;-46
2021/05/18 07:36:58;;;;;;;2.80;1.30;;;22.20;56.60;;;;;;5107145;27;20111;-46
2021/05/18 07:39:23;;;;;;;2.42;1.08;;;22.20;56.70;;;;;;5111435;27;20523;-45
2021/05/18 07:41:49;;;;;;;2.70;1.50;;;22.30;57.40;;;;;;5108190;27;20023;-45
2021/05/18 07:44:14;;;;;;;2.05;1.30;;;22.40;57.40;;;;;;5097795;27;20436;-44
2021/05/18 07:46:42;;;;;;;2.28;1.30;;;22.40;57.10;;;;;;5112688;27;20431;-45
2021/05/18 07:49:28;;;;;;;2.03;1.15;;;22.30;56.70;;;;;;5112980;27;20035;-44
2021/05/18 08:05:28;;;;;;;1.60;1.10;;;22.40;56.10;;;;;;5111244;27;20031;-44
2021/05/18 08:07:53;;;;;;;1.50;1.40;;;22.50;56.20;;;;;;5113365;27;20027;-43
2021/05/18 08:12:45;;;;;;;1.30;1.20;;;22.50;56.30;;;;;;5110624;27;20125;-43
2021/05/18 08:18:03;;;;;;;1.88;1.30;;;22.40;57.60;;;;;;5091425;28;20031;-38
2021/05/18 10:38:22;;;;;;;5.03;2.55;;;22.90;52.50;;;;;;5107179;28;20028;-43
2021/05/18 10:40:49;;;;;;;5.70;2.33;;;22.90;52.40;;;;;;5111279;27;20656;-44
2021/05/18 10:43:21;;;;;;;2.28;1.88;;;23.00;52.30;;;;;;5109684;27;20019;-43
2021/05/18 10:45:56;;;;;;;4.40;1.77;;;23.10;51.90;;;;;;5105953;27;20401;-43
2021/05/18 10:48:34;;;;;;;3.33;1.95;;;23.10;50.40;;;;;;5103364;27;20059;-45
2021/05/18 10:51:20;;;;;;;3.78;1.80;;;23.00;50.80;;;;;;5097749;28;20608;-43
2021/05/18 10:54:11;;;;;;;2.97;1.73;;;23.00;49.70;;;;;;5100150;28;20032;-43
2021/05/18 10:57:01;;;;;;;5.00;2.20;;;23.10;49.70;;;;;;5105144;27;20703;-43
2021/05/18 10:59:37;;;;;;;3.65;1.65;;;23.00;49.80;;;;;;5108820;27;20428;-44
2021/05/18 11:02:15;;;;;;;4.30;1.75;;;23.10;49.70;;;;;;5106682;28;20114;-42
2021/05/18 11:04:47;;;;;;;4.63;1.48;;;23.20;49.60;;;;;;5110091;27;20123;-42
2021/05/18 11:07:16;;;;;;;2.63;1.60;;;23.20;48.70;;;;;;5107929;27;20032;-43
2021/05/18 11:09:41;;;;;;;3.25;1.80;;;23.20;50.10;;;;;;5107051;28;20032;-42
2021/05/18 11:12:14;;;;;;;5.43;1.40;;;23.30;48.00;;;;;;5109039;27;20102;-43
2021/05/18 11:15:02;;;;;;;6.13;1.50;;;23.20;49.50;;;;;;5104428;28;20092;-34
2021/05/18 11:17:31;;;;;;;4.57;1.55;;;23.30;50.30;;;;;;5091060;28;20524;-35
2021/05/18 11:20:00;;;;;;;3.03;1.67;;;23.20;49.70;;;;;;5113246;27;20035;-37
2021/05/18 11:25:11;;;;;;;4.38;1.40;;;23.30;49.30;;;;;;5101937;27;20035;-36
2021/05/18 11:27:37;;;;;;;4.38;1.50;;;23.40;47.90;;;;;;5108784;27;20027;-37
2021/05/18 11:30:07;;;;;;;2.90;1.92;;;23.40;48.10;;;;;;5111912;27;20028;-34
2021/05/18 11:32:32;;;;;;;3.70;1.52;;;23.40;50.00;;;;;;5104149;27;20016;-35
2021/05/18 11:35:02;;;;;;;2.70;1.30;;;23.40;49.60;;;;;;5110098;27;20036;-34
2021/05/18 11:37:28;;;;;;;2.13;1.17;;;23.30;49.00;;;;;;5105293;27;20562;-34
2021/05/18 11:40:10;;;;;;;3.13;1.45;;;23.30;48.30;;;;;;5107583;28;20047;-34
2021/05/18 11:42:36;;;;;;;5.75;1.40;;;23.30;49.00;;;;;;5104115;28;20190;-35
2021/05/18 11:45:07;;;;;;;2.78;1.17;;;23.20;47.90;;;;;;5101968;27;20111;-35
2021/05/18 11:47:33;;;;;;;2.20;1.10;;;23.30;48.40;;;;;;5110014;27;20084;-36
2021/05/18 11:49:58;;;;;;;3.78;1.40;;;23.30;48.70;;;;;;5116199;27;20645;-36
2021/05/18 11:52:24;;;;;;;2.00;1.23;;;23.30;48.20;;;;;;5106234;28;20036;-35
2021/05/18 11:54:49;;;;;;;4.30;1.17;;;23.40;48.90;;;;;;5109690;27;20035;-35
2021/05/18 11:57:15;;;;;;;2.80;1.42;;;23.30;49.30;;;;;;5107454;27;20020;-37
2021/05/18 11:59:42;;;;;;;3.10;1.25;;;23.30;49.10;;;;;;5086520;28;20498;-35
2021/05/18 12:02:08;;;;;;;1.75;1.05;;;23.30;48.70;;;;;;5110157;27;20039;-35
2021/05/18 12:04:37;;;;;;;2.38;0.95;;;23.20;48.00;;;;;;5105100;28;20020;-35
2021/05/18 12:07:08;;;;;;;1.63;0.98;;;23.30;47.50;;;;;;5111360;27;20561;-34
2021/05/18 12:09:35;;;;;;;2.13;1.00;;;23.30;46.40;;;;;;5103931;28;20039;-33
2021/05/18 12:12:02;;;;;;;1.65;0.90;;;23.30;46.50;;;;;;5105533;28;20058;-34
2021/05/18 12:14:28;;;;;;;2.50;1.00;;;23.40;45.90;;;;;;5104646;28;20420;-36
2021/05/18 12:16:54;;;;;;;2.60;0.98;;;23.30;47.00;;;;;;5092070;28;20485;-32
2021/05/18 12:19:20;;;;;;;2.55;0.95;;;23.30;45.80;;;;;;5103049;27;20027;-31
2021/05/18 12:21:48;;;;;;;2.03;1.00;;;23.40;45.80;;;;;;5103239;27;20016;-38
2021/05/18 12:24:18;;;;;;;1.42;1.00;;;23.30;45.50;;;;;;5107320;27;20721;-34
2021/05/18 12:26:58;;;;;;;1.92;1.00;;;23.30;46.30;;;;;;5103282;28;20016;-36
2021/05/18 12:29:42;;;;;;;2.05;1.23;;;23.30;47.00;;;;;;5105797;27;20567;-33
2021/05/18 12:32:27;;;;;;;;;;;23.30;46.30;;;;;;5107599;27;20031;-36
2021/05/18 12:35:19;;;;;;;1.50;1.10;;;23.20;46.50;;;;;;5110912;27;19915;-33
2021/05/18 12:37:47;;;;;;;1.88;1.00;;;23.30;46.90;;;;;;5108582;27;20509;-34
2021/05/18 12:40:29;;;;;;;1.60;1.02;;;23.20;45.30;;;;;;5104586;27;20032;-35
2021/05/18 12:42:55;;;;;;;2.00;0.90;;;23.30;45.90;;;;;;5111211;27;20023;-34
2021/05/18 12:45:22;;;;;;;1.83;0.68;;;23.20;46.00;;;;;;5100571;28;20023;-33
2021/05/18 12:47:52;;;;;;;2.05;1.00;;;23.30;46.20;;;;;;5108365;27;20039;-34
2021/05/18 12:50:18;;;;;;;1.20;0.75;;;23.20;46.40;;;;;;5100628;27;20488;-34
2021/05/18 12:52:50;;;;;;;1.50;0.90;;;23.20;45.60;;;;;;5109059;27;20046;-37
2021/05/18 12:55:23;;;;;;;1.52;1.02;;;23.30;46.90;;;;;;5105719;27;20028;-32
2021/05/18 12:57:56;;;;;;;0.82;0.65;;;23.30;46.10;;;;;;5102556;27;20049;-33
2021/05/18 13:00:25;;;;;;;1.10;0.70;;;23.40;46.30;;;;;;5101919;27;20468;-30
2021/05/18 13:02:52;;;;;;;1.95;0.88;;;23.40;46.80;;;;;;5104060;27;20019;-40
2021/05/18 13:05:19;;;;;;;1.40;0.75;;;23.40;48.00;;;;;;5107637;27;20114;-36
2021/05/18 13:08:06;;;;;;;1.75;0.60;;;23.40;46.90;;;;;;5112088;27;20035;-43
2021/05/18 13:10:40;;;;;;;1.75;0.93;;;23.50;48.40;;;;;;5113194;27;20034;-31
2021/05/18 13:13:07;;;;;;;3.45;1.10;;;23.50;48.70;;;;;;5107241;27;20122;-41
2021/05/18 13:15:32;;;;;;;0.90;0.70;;;23.50;48.30;;;;;;5104292;28;20498;-41
2021/05/18 13:18:00;;;;;;;0.73;0.52;;;23.60;48.00;;;;;;5105793;28;20043;-41
2021/05/18 13:20:34;;;;;;;1.80;0.95;;;23.60;49.30;;;;;;5109248;28;20050;-42
2021/05/18 13:23:01;;;;;;;1.35;0.70;;;23.60;48.30;;;;;;5110501;28;20035;-40
2021/05/18 13:28:11;;;;;;;2.85;0.98;;;23.70;48.90;;;;;;5104717;28;20496;-40
2021/05/18 13:30:37;;;;;;;1.10;0.88;;;23.70;48.40;;;;;;5106626;28;20106;-40
2021/05/18 13:33:04;;;;;;;1.33;0.70;;;23.70;48.50;;;;;;5108996;28;20063;-41
2021/05/18 13:35:31;;;;;;;1.20;1.10;;;23.70;48.40;;;;;;5106707;28;20176;-35
2021/05/18 13:38:00;;;;;;;1.85;0.70;;;23.70;48.50;;;;;;5114704;27;20034;-43
2021/05/18 13:40:25;;;;;;;2.22;0.80;;;23.60;48.70;;;;;;5100478;28;20119;-42
2021/05/18 13:42:53;;;;;;;0.93;0.70;;;23.70;48.70;;;;;;5113279;27;20098;-42
2021/05/18 13:45:23;;;;;;;1.15;0.63;;;23.70;48.60;;;;;;5094347;27;20038;-42
2021/05/18 13:47:50;;;;;;;1.38;1.05;;;23.70;48.70;;;;;;5110568;27;20040;-43
2021/05/18 13:50:16;;;;;;;0.88;0.80;;;23.70;48.80;;;;;;5113207;27;20020;-44
2021/05/18 13:52:41;;;;;;;1.45;0.90;;;23.80;48.80;;;;;;5111297;27;20035;-42
2021/05/18 13:55:08;;;;;;;1.20;0.90;;;23.70;49.10;;;;;;5108464;27;20027;-43
2021/05/18 13:57:33;;;;;;;2.45;0.98;;;23.60;49.30;;;;;;4742419;27;10000031;-44
2021/05/18 14:00:00;;;;;;;1.10;0.60;;;23.60;49.50;;;;;;5111975;27;20027;-44
2021/05/18 14:02:25;;;;;;;1.40;0.90;;;23.70;49.30;;;;;;5113128;27;20133;-43
2021/05/18 14:04:51;;;;;;;1.20;0.77;;;23.70;49.40;;;;;;5116377;27;20435;-41
2021/05/18 14:08:13;;;;;;;1.23;0.90;;;23.70;49.50;;;;;;5119521;27;20031;-42
2021/05/18 14:10:39;;;;;;;1.50;0.80;;;23.80;49.10;;;;;;5110358;27;20031;-43
2021/05/18 14:13:05;;;;;;;1.00;0.70;;;23.80;50.00;;;;;;5096662;28;20071;-42
2021/05/18 14:15:30;;;;;;;2.17;1.15;;;23.70;49.80;;;;;;5103773;28;20037;-39
2021/05/18 14:17:56;;;;;;;1.25;0.80;;;23.80;49.90;;;;;;5108373;28;20043;-43
2021/05/18 14:20:21;;;;;;;2.10;1.02;;;23.70;49.10;;;;;;5106763;28;20501;-43
2021/05/18 14:22:47;;;;;;;1.20;1.10;;;23.70;49.30;;;;;;5107344;27;20036;-42
2021/05/18 14:25:12;;;;;;;1.00;0.77;;;23.70;49.70;;;;;;5108738;27;20034;-43
2021/05/18 14:27:38;;;;;;;1.77;1.50;;;23.70;49.80;;;;;;5103479;28;20058;-43
2021/05/18 14:30:06;;;;;;;2.38;1.80;;;23.60;49.50;;;;;;5098623;28;20058;-43
2021/05/18 14:32:32;;;;;;;3.58;2.38;;;23.60;49.30;;;;;;5104179;27;20030;-43
2021/05/18 14:34:58;;;;;;;2.90;2.00;;;23.50;48.50;;;;;;5104187;28;20039;-44
2021/05/18 14:37:23;;;;;;;4.65;1.30;;;23.60;49.90;;;;;;5101192;28;21593;-44
2021/05/18 14:45:07;;;;;;;3.13;1.48;;;23.60;49.80;;;;;;5101516;28;20031;-44
2021/05/18 14:48:09;;;;;;;2.22;1.80;;;23.70;48.80;;;;;;5102301;27;20081;-44
2021/05/18 14:55:49;;;;;;;2.38;1.25;;;23.60;46.70;;;;;;5104342;28;20055;-43
2021/05/18 14:58:16;;;;;;;2.47;1.58;;;23.70;48.30;;;;;;5085563;28;20397;-44
2021/05/18 15:00:42;;;;;;;1.75;1.27;;;23.70;48.90;;;;;;5104691;27;20024;-44
2021/05/18 15:03:07;;;;;;;1.85;1.33;;;23.70;49.00;;;;;;5101043;28;20046;-44
2021/05/18 15:05:33;;;;;;;1.60;1.30;;;23.60;48.80;;;;;;5102171;28;20024;-41
2021/05/18 15:07:59;;;;;;;3.15;1.10;;;23.50;48.50;;;;;;5105647;27;20038;-45
2021/05/18 15:10:26;;;;;;;1.52;1.00;;;23.60;48.80;;;;;;5098286;27;20584;-38
2021/05/18 15:12:51;;;;;;;1.40;1.02;;;23.60;49.10;;;;;;5099343;28;20032;-38
2021/05/18 15:15:17;;;;;;;1.23;0.90;;;23.50;49.40;;;;;;5100363;27;20046;-46
2021/05/18 15:17:42;;;;;;;2.40;1.33;;;23.50;48.70;;;;;;5100939;28;20023;-40
2021/05/18 15:20:09;;;;;;;1.48;1.05;;;23.50;49.00;;;;;;5088627;28;20032;-35
2021/05/18 15:22:35;;;;;;;1.40;1.30;;;23.50;49.10;;;;;;5100196;27;20054;-42
2021/05/18 15:25:01;;;;;;;1.60;1.10;;;23.60;49.30;;;;;;5106270;27;20046;-45
2021/05/18 15:27:27;;;;;;;1.35;0.85;;;23.60;49.30;;;;;;5085414;27;20027;-43
2021/05/18 15:29:53;;;;;;;1.52;1.05;;;23.60;49.20;;;;;;5106769;27;20027;-41
2021/05/18 15:32:19;;;;;;;1.33;1.00;;;23.50;49.40;;;;;;5089755;28;20024;-43
2021/05/18 15:34:44;;;;;;;2.30;0.90;;;23.40;49.50;;;;;;5110405;27;20497;-45
2021/05/18 15:37:10;;;;;;;1.55;0.88;;;23.50;49.60;;;;;;5107969;27;20126;-45
2021/05/18 15:39:36;;;;;;;1.50;0.93;;;23.40;49.50;;;;;;5102802;28;20031;-38
2021/05/18 15:42:02;;;;;;;1.92;0.70;;;23.30;49.90;;;;;;5098242;27;20709;-41
2021/05/18 15:44:28;;;;;;;1.70;1.08;;;23.50;49.70;;;;;;5088282;28;20046;-43
2021/05/18 15:46:54;;;;;;;2.17;0.90;;;23.50;50.40;;;;;;5103438;27;20024;-33
2021/05/18 15:49:19;;;;;;;1.38;0.85;;;23.50;50.60;;;;;;5089228;28;20279;-37
2021/05/18 15:51:45;;;;;;;0.98;0.73;;;23.50;49.90;;;;;;5085996;27;20031;-41
2021/05/18 15:54:11;;;;;;;1.83;0.88;;;23.50;50.00;;;;;;5106900;27;20042;-38
2021/05/18 15:56:36;;;;;;;1.00;0.73;;;23.50;50.10;;;;;;5101079;27;20443;-43
2021/05/18 15:59:03;;;;;;;0.75;0.70;;;23.40;50.40;;;;;;5107000;27;20086;-39
2021/05/18 16:01:28;;;;;;;1.70;0.80;;;23.40;50.50;;;;;;5102316;27;20023;-42
2021/05/18 16:03:54;;;;;;;2.20;1.00;;;23.50;50.60;;;;;;5101400;27;20027;-37
2021/05/18 16:06:21;;;;;;;1.30;1.10;;;23.50;50.70;;;;;;5101877;27;20050;-35
2021/05/18 16:11:13;;;;;;;0.75;0.65;;;23.30;51.20;;;;;;5099945;28;20028;-42
2021/05/18 16:13:39;;;;;;;1.27;0.90;;;23.40;51.20;;;;;;5102613;27;20058;-39
2021/05/18 16:16:06;;;;;;;1.48;0.80;;;23.40;51.10;;;;;;5100423;27;20027;-40
2021/05/18 16:18:32;;;;;;;1.70;0.73;;;23.40;51.20;;;;;;5104155;27;20119;-42
2021/05/18 16:20:58;;;;;;;2.22;0.90;;;23.30;51.30;;;;;;5105647;28;20070;-42
2021/05/18 16:23:27;;;;;;;3.55;0.90;;;23.40;51.10;;;;;;5104819;27;20056;-42
2021/05/18 16:25:56;;;;;;;2.00;0.90;;;23.60;51.00;;;;;;5107228;27;20110;-44
2021/05/18 16:28:22;;;;;;;1.50;0.80;;;23.70;50.60;;;;;;5106733;28;20046;-43
2021/05/18 16:30:49;;;;;;;2.65;0.80;;;23.60;50.80;;;;;;5097690;27;20474;-42
2021/05/18 16:33:15;;;;;;;3.58;0.90;;;23.60;50.90;;;;;;5108267;27;20489;-44
2021/05/18 16:35:40;;;;;;;0.80;0.80;;;23.60;50.90;;;;;;5104073;28;20040;-46
2021/05/18 16:38:06;;;;;;;1.52;1.00;;;23.60;51.40;;;;;;5111013;27;20058;-43
2021/05/18 16:40:31;;;;;;;1.35;0.80;;;23.60;50.80;;;;;;5108467;27;20035;-44
2021/05/18 16:42:57;;;;;;;4.03;1.10;;;23.70;51.30;;;;;;5107573;27;20577;-47
2021/05/18 16:45:23;;;;;;;0.75;0.55;;;23.70;50.60;;;;;;5106159;27;20031;-45
2021/05/18 16:47:48;;;;;;;1.52;0.98;;;23.70;50.70;;;;;;5105940;27;20485;-45
2021/05/18 16:50:14;;;;;;;1.80;0.80;;;23.60;51.00;;;;;;5105294;27;20016;-44
2021/05/18 16:52:40;;;;;;;1.52;0.60;;;23.60;51.20;;;;;;5096842;27;20031;-42
2021/05/18 16:55:07;;;;;;;0.82;0.70;;;23.60;51.10;;;;;;5098205;28;20043;-44
2021/05/18 16:57:32;;;;;;;2.25;1.02;;;23.60;51.30;;;;;;5102501;27;20030;-44
2021/05/18 16:59:58;;;;;;;1.13;0.80;;;23.50;51.50;;;;;;5098888;27;20028;-44
2021/05/18 17:02:24;;;;;;;1.13;0.85;;;23.50;51.60;;;;;;5095232;27;20859;-44
2021/05/18 17:04:49;;;;;;;2.20;0.90;;;23.50;51.70;;;;;;5081556;28;20019;-44
2021/05/18 17:07:15;;;;;;;1.38;0.77;;;23.50;51.80;;;;;;5095946;28;20039;-43
2021/05/18 17:09:41;;;;;;;0.73;0.60;;;23.50;51.90;;;;;;5100468;28;20030;-43
2021/05/18 17:12:07;;;;;;;0.90;0.85;;;23.50;51.80;;;;;;5103009;27;20141;-43
2021/05/18 17:14:33;;;;;;;1.30;0.70;;;23.50;51.90;;;;;;5098579;28;20101;-47
2021/05/18 17:16:59;;;;;;;1.50;0.60;;;23.50;51.80;;;;;;5096812;28;20027;-46
2021/05/18 17:19:25;;;;;;;2.08;0.88;;;23.50;51.80;;;;;;5098936;28;20059;-46
2021/05/18 17:21:51;;;;;;;1.10;0.70;;;23.50;51.70;;;;;;5095049;28;20070;-45
2021/05/18 17:24:16;;;;;;;1.02;0.65;;;23.50;51.90;;;;;;5095759;28;20027;-45
2021/05/18 17:26:43;;;;;;;1.25;0.82;;;23.50;52.10;;;;;;5096445;28;20103;-46
2021/05/18 17:29:10;;;;;;;0.90;0.77;;;23.50;52.00;;;;;;5099400;28;20494;-45
2021/05/18 17:31:35;;;;;;;2.60;0.80;;;23.60;51.70;;;;;;5091649;28;20108;-44
2021/05/18 17:34:01;;;;;;;1.83;0.80;;;23.60;51.60;;;;;;5079330;28;20032;-46
2021/05/18 17:36:28;;;;;;;2.00;1.00;;;23.80;51.40;;;;;;5097015;28;20073;-36
2021/05/18 17:38:55;;;;;;;2.05;0.90;;;23.80;51.50;;;;;;5097037;28;20030;-36
2021/05/18 17:41:22;;;;;;;1.85;0.90;;;23.70;51.60;;;;;;5093328;28;20034;-36
2021/05/18 17:43:49;;;;;;;4.03;0.80;;;23.60;52.00;;;;;;5089101;28;20039;-35
2021/05/18 17:46:15;;;;;;;1.75;1.10;;;23.50;52.10;;;;;;5095698;28;20036;-36
2021/05/18 17:48:40;;;;;;;1.05;0.80;;;23.60;52.30;;;;;;5077453;28;20046;-38
2021/05/18 17:51:06;;;;;;;2.15;0.90;;;23.70;51.50;;;;;;5097851;28;20066;-36
2021/05/18 17:53:32;;;;;;;1.25;0.82;;;23.80;51.40;;;;;;5097074;28;20023;-37
2021/05/18 17:55:58;;;;;;;1.15;0.93;;;23.90;51.00;;;;;;5100702;28;20108;-36
2021/05/18 17:58:24;;;;;;;1.30;1.00;;;23.90;51.70;;;;;;5079926;28;20038;-36
2021/05/18 18:00:50;;;;;;;1.42;0.88;;;23.90;51.40;;;;;;5100722;28;20031;-36
2021/05/18 18:03:18;;;;;;;2.88;0.95;;;23.80;51.70;;;;;;5099599;28;20464;-38
2021/05/18 18:05:46;;;;;;;3.33;1.15;;;23.70;52.70;;;;;;5099644;28;20058;-36
2021/05/18 18:08:14;;;;;;;2.38;1.02;;;23.70;52.60;;;;;;5085707;28;20393;-39
2021/05/18 18:10:47;;;;;;;6.15;1.10;;;23.60;52.20;;;;;;4393895;28;9999869;-35